METAR Data
IDs: Format: Raw Decoded Include TAF

Data at: 0248 UTC 24 Jun 2021

METAR for:KMWO (Middletown/Hook Fld, OH, US)
Text:KMWO 240235Z AUTO 11004KT 10SM CLR 20/11 A3017 RMK AO2 T02030109
Temperature: 20.3°C ( 69°F)
Dewpoint: 10.9°C ( 52°F) [RH = 55%]
Pressure (altimeter):30.17 inches Hg (1021.8 mb)
Winds:from the ESE (110 degrees) at 5 MPH (4 knots; 2.1 m/s)
Visibility:10 or more sm (16+ km)
Ceiling:at least 12,000 feet AGL
Clouds:sky clear below 12,000 feet AGL
QC Flag:automated observation with no human augmentation